Terminal Aerodrome Forecast
Issued by NWS

Home | Current Version | Previous Version | Text Only | Print | Product List | Glossary On
Versions: 1 2 3 4 5 6 7 8 9 10 11 12 13 14 15 16 17
000
FTUS41 KBOX 111502 AAA
TAFHYA
TAF AMD
KHYA 111502Z 1115/1212 25009G19KT P6SM BKN050 BKN090
     FM111700 27011G20KT P6SM SCT045 SCT120
     FM112000 27009KT P6SM FEW200
     FM120600 VRB03KT P6SM BKN030
     FM120700 13006KT P6SM BKN030=

USA.gov is the U.S. government's official web portal to all federal, state and local government web resources and services.